Time;durP1;ratioP1;P1;durP2;ratioP2;P2;SDS_P1;SDS_P2;PMS_P1;PMS_P2;Temp;Humidity;BMP_temperature;BMP_pressure;BME280_temperature;BME280_humidity;BME280_pressure;Samples;Min_cycle;Max_cycle;Signal;HPM_P1;HPM_P2
2021/07/04 04:02:52;;;;;;;7.35;5.80;;;17.80;99.90;;;;;;5129865;23;92857;-86
2021/07/04 04:05:17;;;;;;;7.45;6.05;;;17.90;99.90;;;;;;4887440;28;92183;-82
2021/07/04 04:07:43;;;;;;;6.22;5.45;;;17.90;99.90;;;;;;4896185;28;91957;-82
2021/07/04 04:10:11;;;;;;;6.93;6.00;;;18.00;99.90;;;;;;4884701;28;91585;-82
2021/07/04 04:12:37;;;;;;;7.72;6.00;;;18.00;99.90;;;;;;4892146;28;92047;-81
2021/07/04 04:15:03;;;;;;;8.75;6.32;;;18.00;99.90;;;;;;4901095;28;92303;-82
2021/07/04 04:17:29;;;;;;;9.80;6.97;;;18.10;99.90;;;;;;4895372;28;93451;-82
2021/07/04 04:19:55;;;;;;;6.95;6.25;;;18.10;99.90;;;;;;4891779;28;92053;-84
2021/07/04 04:22:22;;;;;;;7.63;6.20;;;18.20;99.90;;;;;;4891365;28;91967;-85
2021/07/04 04:24:48;;;;;;;9.40;6.18;;;18.10;99.90;;;;;;4889656;28;95315;-82
2021/07/04 04:27:14;;;;;;;9.23;6.20;;;18.00;99.90;;;;;;4888542;28;93394;-84
2021/07/04 04:29:40;;;;;;;7.97;5.95;;;18.00;99.90;;;;;;4891012;28;91874;-84
2021/07/04 04:32:06;;;;;;;7.80;7.00;;;18.10;99.90;;;;;;4895078;28;91938;-84
2021/07/04 04:34:32;;;;;;;7.00;6.13;;;18.20;99.90;;;;;;4900320;28;92271;-85
2021/07/04 04:36:59;;;;;;;8.32;6.90;;;18.10;99.90;;;;;;4895533;28;92002;-83
2021/07/04 04:39:25;;;;;;;8.15;6.95;;;18.10;99.90;;;;;;4877755;28;91621;-82
2021/07/04 04:41:51;;;;;;;6.85;6.15;;;18.20;99.90;;;;;;4881988;28;91266;-82
2021/07/04 04:44:17;;;;;;;8.60;7.28;;;18.20;99.90;;;;;;4888204;28;92248;-81
2021/07/04 04:46:43;;;;;;;7.13;6.43;;;18.20;99.90;;;;;;4889771;28;92326;-81
2021/07/04 04:49:10;;;;;;;7.55;6.65;;;18.10;99.90;;;;;;4888388;28;92996;-81
2021/07/04 04:51:37;;;;;;;8.45;7.15;;;18.10;99.90;;;;;;4889932;28;91463;-84
2021/07/04 04:54:03;;;;;;;7.88;7.07;;;18.10;99.90;;;;;;4896674;28;93391;-84
2021/07/04 04:56:29;;;;;;;8.65;6.57;;;18.10;99.90;;;;;;4892801;28;92582;-83
2021/07/04 04:58:55;;;;;;;9.35;6.85;;;18.10;99.90;;;;;;4883776;28;92109;-84
2021/07/04 05:01:20;;;;;;;6.63;5.90;;;18.20;99.90;;;;;;4895171;28;92072;-84
2021/07/04 05:03:46;;;;;;;7.07;5.72;;;18.10;99.90;;;;;;4887664;28;92563;-84
2021/07/04 05:06:12;;;;;;;6.60;5.07;;;18.20;99.90;;;;;;4898748;28;91201;-85
2021/07/04 05:08:37;;;;;;;5.53;4.95;;;18.30;99.90;;;;;;4891478;28;92006;-85
2021/07/04 05:11:04;;;;;;;6.53;4.75;;;18.30;99.90;;;;;;4888681;28;92000;-82
2021/07/04 05:13:30;;;;;;;5.57;4.60;;;18.40;99.90;;;;;;4893601;28;94231;-85
2021/07/04 05:15:56;;;;;;;6.10;4.88;;;18.40;99.90;;;;;;4898101;28;92916;-82
2021/07/04 05:18:21;;;;;;;6.80;5.00;;;18.50;99.90;;;;;;4898228;28;92107;-83
2021/07/04 05:20:47;;;;;;;6.13;4.38;;;18.70;99.90;;;;;;4906772;28;92114;-83
2021/07/04 05:23:13;;;;;;;4.72;4.10;;;18.80;99.90;;;;;;4898141;28;92881;-83
2021/07/04 05:25:38;;;;;;;5.38;4.55;;;18.90;99.90;;;;;;4894393;28;92500;-83
2021/07/04 05:28:04;;;;;;;5.25;4.75;;;19.00;99.90;;;;;;4896521;28;91317;-82
2021/07/04 05:30:30;;;;;;;5.50;4.82;;;19.00;99.90;;;;;;4887383;28;90984;-82
2021/07/04 05:32:56;;;;;;;6.38;3.90;;;19.00;99.90;;;;;;4879129;28;91923;-82
2021/07/04 05:35:21;;;;;;;4.60;4.20;;;19.00;99.90;;;;;;4894762;28;92479;-84
2021/07/04 05:37:47;;;;;;;6.10;4.90;;;19.10;99.90;;;;;;4894395;28;92916;-84
2021/07/04 05:40:14;;;;;;;5.28;4.32;;;19.00;99.90;;;;;;4896442;28;91537;-86
2021/07/04 05:42:41;;;;;;;5.43;4.03;;;19.10;99.90;;;;;;4891419;28;92334;-83
2021/07/04 05:45:10;;;;;;;4.85;4.32;;;19.20;99.90;;;;;;4896088;28;93022;-84
2021/07/04 05:47:36;;;;;;;5.18;4.47;;;19.30;99.90;;;;;;4896759;28;91729;-84
2021/07/04 05:50:03;;;;;;;5.20;4.30;;;19.40;99.90;;;;;;4892208;28;91744;-84
2021/07/04 05:52:30;;;;;;;5.82;4.28;;;19.70;99.90;;;;;;4886975;28;94060;-84
2021/07/04 05:54:56;;;;;;;4.57;4.18;;;19.70;99.90;;;;;;4892254;28;92037;-84
2021/07/04 05:57:22;;;;;;;4.85;3.97;;;19.80;99.90;;;;;;4897352;28;92425;-83
2021/07/04 05:59:47;;;;;;;5.15;4.30;;;19.80;99.90;;;;;;4899031;28;91314;-83
2021/07/04 06:02:13;;;;;;;5.32;4.80;;;19.70;99.90;;;;;;4914842;28;93614;-80
2021/07/04 06:04:39;;;;;;;4.97;4.32;;;19.70;99.90;;;;;;4912223;28;93179;-83
2021/07/04 06:07:05;;;;;;;5.03;4.60;;;19.70;99.90;;;;;;4896383;28;91798;-84
2021/07/04 06:09:31;;;;;;;4.60;4.07;;;19.80;99.90;;;;;;4904531;28;92859;-80
2021/07/04 06:11:56;;;;;;;4.60;4.03;;;19.90;99.90;;;;;;4901728;28;93334;-81
2021/07/04 06:14:22;;;;;;;4.78;4.28;;;20.10;99.90;;;;;;4892405;28;92904;-80
2021/07/04 06:16:48;;;;;;;4.70;4.30;;;20.30;99.90;;;;;;4896856;28;91869;-83
2021/07/04 06:19:14;;;;;;;4.22;3.83;;;20.50;99.90;;;;;;4893979;28;91134;-81
2021/07/04 06:21:40;;;;;;;5.40;3.90;;;20.60;99.90;;;;;;4888540;28;93205;-84
2021/07/04 06:24:06;;;;;;;4.30;3.90;;;20.80;99.90;;;;;;4893401;28;93372;-83
2021/07/04 06:26:32;;;;;;;3.92;3.60;;;21.00;99.90;;;;;;4894868;28;92827;-82
2021/07/04 06:28:58;;;;;;;4.20;3.80;;;21.20;99.90;;;;;;4888743;28;92102;-82
2021/07/04 06:31:24;;;;;;;4.82;3.85;;;21.40;99.90;;;;;;4896566;28;92760;-82
2021/07/04 06:33:53;;;;;;;4.18;3.78;;;21.60;99.90;;;;;;4908079;28;91958;-83
2021/07/04 06:39:53;;;;;;;4.03;3.60;;;21.60;99.90;;;;;;4885930;28;91551;-83
2021/07/04 06:42:19;;;;;;;4.78;4.28;;;21.70;99.90;;;;;;4888664;28;92401;-77
2021/07/04 06:44:45;;;;;;;4.00;3.67;;;21.70;99.90;;;;;;4883660;28;91046;-75
2021/07/04 06:47:10;;;;;;;4.13;3.72;;;22.00;99.90;;;;;;4882262;28;92993;-75
2021/07/04 06:49:36;;;;;;;4.13;3.83;;;22.30;99.90;;;;;;4886115;28;91832;-76
2021/07/04 06:52:02;;;;;;;3.85;3.55;;;22.50;99.90;;;;;;4884659;28;94599;-76
2021/07/04 06:54:28;;;;;;;4.68;4.28;;;22.50;99.90;;;;;;4885903;28;93279;-77
2021/07/04 06:56:53;;;;;;;4.57;4.18;;;22.30;99.90;;;;;;4893684;28;91727;-83
2021/07/04 06:59:19;;;;;;;4.38;3.97;;;22.40;99.90;;;;;;4893022;28;91476;-83
2021/07/04 07:01:45;;;;;;;4.40;4.00;;;22.60;99.90;;;;;;4888117;28;91598;-83
2021/07/04 07:04:13;;;;;;;5.35;4.15;;;22.60;99.90;;;;;;4894359;28;91968;-82
2021/07/04 07:06:39;;;;;;;4.55;4.15;;;22.80;99.90;;;;;;4891978;28;91920;-81
2021/07/04 07:09:05;;;;;;;4.97;3.88;;;22.80;99.90;;;;;;4875661;28;91276;-82
2021/07/04 07:11:30;;;;;;;4.25;3.60;;;22.90;99.90;;;;;;4894875;28;92549;-82
2021/07/04 07:13:56;;;;;;;4.85;4.35;;;23.10;99.90;;;;;;4892665;28;92409;-82
2021/07/04 07:16:23;;;;;;;4.15;3.75;;;22.90;99.90;;;;;;4895520;28;92054;-80
2021/07/04 07:18:49;;;;;;;4.10;3.70;;;23.00;99.90;;;;;;4877442;28;91463;-84
2021/07/04 07:21:15;;;;;;;4.30;3.90;;;23.10;99.80;;;;;;4896695;28;93124;-82
2021/07/04 07:23:41;;;;;;;4.82;4.43;;;23.20;99.60;;;;;;4897822;28;92472;-82
2021/07/04 07:26:07;;;;;;;4.43;4.03;;;23.10;99.90;;;;;;4895445;28;91448;-83
2021/07/04 07:28:34;;;;;;;3.85;3.53;;;23.10;99.10;;;;;;4897494;28;92065;-83
2021/07/04 07:34:22;;;;;;;4.70;4.18;;;23.30;99.20;;;;;;4893174;28;91014;-82
2021/07/04 07:36:49;;;;;;;3.97;3.58;;;23.20;97.70;;;;;;4895448;28;91920;-81
2021/07/04 07:42:37;;;;;;;3.95;3.55;;;23.80;97.00;;;;;;4893123;28;92660;-82
2021/07/04 07:45:05;;;;;;;5.10;4.68;;;24.60;95.10;;;;;;4895792;28;92936;-82
2021/07/04 07:47:31;;;;;;;3.97;3.47;;;24.60;95.20;;;;;;4897212;28;91865;-80
2021/07/04 07:50:00;;;;;;;5.47;4.22;;;24.40;94.60;;;;;;4899324;28;91245;-82
2021/07/04 07:52:26;;;;;;;5.50;5.10;;;24.60;94.10;;;;;;4898181;28;92783;-82
2021/07/04 07:58:14;;;;;;;3.72;3.42;;;25.00;92.90;;;;;;4894589;28;91633;-82
2021/07/04 08:00:40;;;;;;;3.88;3.47;;;25.30;92.70;;;;;;4899177;28;90959;-82
2021/07/04 08:06:27;;;;;;;5.38;4.88;;;25.90;91.10;;;;;;4893841;28;91882;-83
2021/07/04 08:08:53;;;;;;;5.22;4.82;;;26.00;90.00;;;;;;4900069;28;92694;-82
2021/07/04 08:11:19;;;;;;;3.45;3.15;;;25.80;90.60;;;;;;4899787;28;92193;-84
2021/07/04 08:13:45;;;;;;;5.47;5.07;;;25.30;90.60;;;;;;4900681;28;92553;-84
2021/07/04 08:16:10;;;;;;;4.40;4.00;;;25.50;91.10;;;;;;4901731;28;92779;-82
2021/07/04 08:18:36;;;;;;;6.00;5.50;;;24.80;92.30;;;;;;4899640;28;91435;-83
2021/07/04 08:21:02;;;;;;;5.70;5.20;;;25.00;92.70;;;;;;4899365;28;92061;-83
2021/07/04 08:23:28;;;;;;;6.05;5.55;;;24.70;93.10;;;;;;4900129;28;91957;-83
2021/07/04 08:25:54;;;;;;;4.70;4.40;;;24.70;92.70;;;;;;4901587;28;91811;-81
2021/07/04 08:28:20;;;;;;;4.35;3.72;;;24.60;92.90;;;;;;4901043;28;91865;-82
2021/07/04 08:30:48;;;;;;;3.80;3.40;;;24.60;93.00;;;;;;4908161;28;91247;-81
2021/07/04 08:33:15;;;;;;;5.57;5.15;;;24.90;92.60;;;;;;4891917;28;93197;-81
2021/07/04 08:35:42;;;;;;;4.40;4.00;;;24.70;92.80;;;;;;4908148;28;94746;-81
2021/07/04 08:38:08;;;;;;;5.13;4.72;;;24.90;93.00;;;;;;4908044;28;91903;-80
2021/07/04 08:40:36;;;;;;;4.20;3.80;;;24.80;93.10;;;;;;4907681;28;91298;-80
2021/07/04 08:43:05;;;;;;;5.07;4.18;;;25.00;93.30;;;;;;4903889;28;91613;-82
2021/07/04 08:45:35;;;;;;;4.72;4.43;;;25.60;91.50;;;;;;4883308;28;91909;-82
2021/07/04 08:48:02;;;;;;;4.07;3.67;;;25.60;91.80;;;;;;4887148;28;91747;-81
2021/07/04 08:50:29;;;;;;;4.18;3.75;;;25.90;91.40;;;;;;4901100;28;90685;-81
2021/07/04 08:52:58;;;;;;;4.80;4.40;;;26.30;90.60;;;;;;4897108;28;93961;-81
2021/07/04 08:55:24;;;;;;;3.60;3.30;;;26.70;90.30;;;;;;4884389;28;91837;-81
2021/07/04 08:57:55;;;;;;;3.88;3.58;;;27.10;89.60;;;;;;4896169;28;99253;-82
2021/07/04 09:00:21;;;;;;;3.97;3.67;;;27.40;87.70;;;;;;4874762;28;92165;-81
2021/07/04 09:02:47;;;;;;;5.43;5.03;;;27.50;86.20;;;;;;4893380;28;93434;-82
2021/07/04 09:05:14;;;;;;;4.10;3.80;;;27.60;84.30;;;;;;4877840;28;92129;-83
2021/07/04 09:07:41;;;;;;;5.95;5.45;;;28.10;84.30;;;;;;4894453;28;92049;-81
2021/07/04 09:10:14;;;;;;;3.80;3.50;;;27.80;84.70;;;;;;4894768;28;92005;-84
2021/07/04 09:12:44;;;;;;;3.65;3.35;;;28.10;82.10;;;;;;4895012;28;92602;-83
2021/07/04 09:15:30;;;;;;;5.28;4.78;;;28.20;77.20;;;;;;4897802;28;92300;-83
2021/07/04 09:17:58;;;;;;;4.80;4.50;;;28.60;77.30;;;;;;4875783;28;92105;-82
2021/07/04 09:20:36;;;;;;;2.97;2.78;;;28.50;78.30;;;;;;4896262;28;91430;-83
2021/07/04 09:23:03;;;;;;;4.57;4.28;;;28.60;75.70;;;;;;4892941;28;92698;-83
2021/07/04 09:28:52;;;;;;;5.18;4.88;;;28.80;75.00;;;;;;4896696;28;91805;-82
2021/07/04 09:31:19;;;;;;;4.70;4.40;;;28.80;73.80;;;;;;4915400;28;91417;-82
2021/07/04 09:33:46;;;;;;;4.82;4.47;;;28.80;75.20;;;;;;4907297;28;94700;-82
2021/07/04 09:36:12;;;;;;;4.68;4.28;;;28.70;73.70;;;;;;4896734;28;91929;-82
2021/07/04 09:38:43;;;;;;;4.70;4.30;;;28.60;74.60;;;;;;4893532;28;91399;-83
2021/07/04 09:41:12;;;;;;;3.30;3.00;;;28.30;73.60;;;;;;4894176;28;91027;-82
2021/07/04 09:43:39;;;;;;;4.65;4.35;;;27.70;74.50;;;;;;4897419;28;91722;-83
2021/07/04 09:46:08;;;;;;;3.50;3.22;;;27.70;75.50;;;;;;4863036;29;93100;-84
2021/07/04 09:48:33;;;;;;;4.32;4.13;;;27.10;77.10;;;;;;4901661;28;92149;-83
2021/07/04 09:50:59;;;;;;;5.00;4.60;;;;;;;;;;4900771;28;91408;-84
2021/07/04 09:53:36;;;;;;;5.15;4.78;;;26.30;79.30;;;;;;4896735;28;92286;-82
2021/07/04 09:56:15;;;;;;;4.82;4.43;;;26.20;80.30;;;;;;4903444;28;91752;-83
2021/07/04 09:58:43;;;;;;;4.57;4.28;;;26.20;80.70;;;;;;4900572;28;94823;-85
2021/07/04 10:01:11;;;;;;;4.88;4.47;;;25.70;82.90;;;;;;4894309;28;91868;-84
2021/07/04 10:03:44;;;;;;;5.47;5.07;;;25.70;82.70;;;;;;4897228;28;92128;-83
2021/07/04 10:06:16;;;;;;;3.33;3.03;;;25.60;83.00;;;;;;4898365;28;91213;-83
2021/07/04 10:08:41;;;;;;;5.43;5.03;;;25.80;83.20;;;;;;4890449;28;92333;-86
2021/07/04 10:11:09;;;;;;;3.90;3.53;;;25.60;83.60;;;;;;4902552;28;91358;-85
2021/07/04 10:13:37;;;;;;;5.22;4.88;;;25.80;82.50;;;;;;4897671;28;93510;-83
2021/07/04 10:16:07;;;;;;;3.50;3.20;;;25.80;82.70;;;;;;4907405;28;92421;-82
2021/07/04 10:18:35;;;;;;;3.58;3.28;;;26.00;83.50;;;;;;4912892;28;91755;-83
2021/07/04 10:21:01;;;;;;;4.85;4.35;;;;;;;;;;4892684;28;91646;-83
2021/07/04 10:23:27;;;;;;;4.80;4.50;;;26.10;80.40;;;;;;4905921;28;92757;-82
2021/07/04 10:29:18;;;;;;;4.93;4.53;;;26.30;80.70;;;;;;4903331;28;91340;-80
2021/07/04 10:31:45;;;;;;;4.97;4.63;;;26.40;81.50;;;;;;4917875;28;90544;-81
2021/07/04 10:37:38;;;;;;;3.80;3.50;;;26.70;80.50;;;;;;4898336;28;91769;-83
2021/07/04 10:40:07;;;;;;;;;;;27.10;80.90;;;;;;4886073;28;93035;-84
2021/07/04 10:42:37;;;;;;;3.15;2.95;;;27.80;78.60;;;;;;4894805;28;91877;-85
2021/07/04 10:45:03;;;;;;;;;;;28.20;76.80;;;;;;4896274;28;92297;-85
2021/07/04 10:47:35;;;;;;;5.28;4.90;;;28.50;74.50;;;;;;4896456;28;93284;-85
2021/07/04 10:50:12;;;;;;;5.47;5.07;;;28.50;74.50;;;;;;4897987;28;92256;-84
2021/07/04 10:52:46;;;;;;;5.78;5.38;;;28.40;73.60;;;;;;4901186;28;91712;-84
2021/07/04 10:55:32;;;;;;;5.50;5.18;;;28.40;74.90;;;;;;4897429;28;94630;-83
2021/07/04 11:01:54;;;;;;;5.07;4.68;;;28.80;73.60;;;;;;4893841;28;91817;-87
2021/07/04 11:04:32;;;;;;;5.68;5.18;;;29.00;74.20;;;;;;4876734;29;91370;-81
2021/07/04 11:07:05;;;;;;;5.38;5.05;;;29.00;73.40;;;;;;4876880;29;92672;-82
2021/07/04 11:09:55;;;;;;;5.90;5.50;;;29.00;72.70;;;;;;4875404;28;94179;-82
2021/07/04 11:12:28;;;;;;;5.90;5.40;;;28.60;72.80;;;;;;4877707;28;91872;-82
2021/07/04 11:15:14;;;;;;;5.70;5.20;;;28.20;73.90;;;;;;4876495;29;91884;-82
2021/07/04 11:17:59;;;;;;;5.97;5.55;;;27.70;75.20;;;;;;4851398;28;95146;-76
2021/07/04 11:20:55;;;;;;;5.88;5.47;;;27.40;75.80;;;;;;4879393;28;92764;-77
2021/07/04 11:23:26;;;;;;;5.25;4.90;;;26.80;77.10;;;;;;4841389;29;92181;-76
2021/07/04 11:26:19;;;;;;;4.43;4.03;;;26.70;77.60;;;;;;4858046;28;91314;-76
2021/07/04 11:28:46;;;;;;;5.65;5.25;;;26.50;78.80;;;;;;4860169;29;92555;-76
2021/07/04 11:31:18;;;;;;;4.28;3.63;;;26.40;79.20;;;;;;4865702;28;92824;-82
2021/07/04 11:33:52;;;;;;;4.22;3.63;;;26.30;79.70;;;;;;4874874;29;92600;-82
2021/07/04 11:36:23;;;;;;;5.63;5.22;;;25.90;80.00;;;;;;4876565;29;91941;-83
2021/07/04 11:38:53;;;;;;;5.43;5.03;;;25.90;80.80;;;;;;4876177;29;93196;-81
2021/07/04 11:41:22;;;;;;;5.10;4.70;;;25.90;81.40;;;;;;4875393;29;92819;-82
2021/07/04 11:43:50;;;;;;;5.45;5.00;;;25.70;81.90;;;;;;4876821;29;91862;-83
2021/07/04 11:46:18;;;;;;;4.93;4.63;;;25.60;81.40;;;;;;4876260;29;91400;-83
2021/07/04 11:49:04;;;;;;;5.13;4.72;;;25.40;82.00;;;;;;4877029;29;91653;-83
2021/07/04 11:51:42;;;;;;;5.18;4.78;;;25.50;81.40;;;;;;4876734;29;92513;-83
2021/07/04 11:54:11;;;;;;;5.15;4.85;;;25.60;81.90;;;;;;4876850;29;91815;-83
2021/07/04 11:56:40;;;;;;;5.00;4.63;;;25.50;82.90;;;;;;4877027;29;91301;-83
2021/07/04 11:59:08;;;;;;;4.82;4.53;;;25.40;82.40;;;;;;4875272;29;94129;-83
2021/07/04 12:01:41;;;;;;;5.25;4.90;;;25.50;82.20;;;;;;4876049;28;93265;-84
2021/07/04 12:04:07;;;;;;;5.03;4.65;;;25.60;83.00;;;;;;4876806;29;91623;-84
2021/07/04 12:09:56;;;;;;;4.30;3.50;;;25.80;83.60;;;;;;4875401;29;92241;-83
2021/07/04 12:15:50;;;;;;;5.55;5.15;;;26.10;84.10;;;;;;4882656;29;91490;-83
2021/07/04 12:18:18;;;;;;;5.22;4.85;;;26.00;82.90;;;;;;4885274;29;91178;-82
2021/07/04 12:20:53;;;;;;;4.90;4.60;;;25.80;83.70;;;;;;4884106;29;92246;-83
2021/07/04 12:23:19;;;;;;;5.25;4.85;;;25.70;83.70;;;;;;4866267;29;93613;-82
2021/07/04 12:25:45;;;;;;;4.80;4.47;;;25.80;85.80;;;;;;4882091;29;92615;-82
2021/07/04 12:28:16;;;;;;;5.50;5.00;;;25.80;86.20;;;;;;4880827;29;91725;-79
2021/07/04 12:30:43;;;;;;;5.70;5.20;;;25.40;86.70;;;;;;4870768;29;92239;-79
2021/07/04 12:33:13;;;;;;;5.40;5.00;;;25.30;86.70;;;;;;4872075;29;92414;-78
2021/07/04 12:35:55;;;;;;;4.97;4.57;;;25.30;87.20;;;;;;4871133;29;91841;-78
2021/07/04 12:38:24;;;;;;;5.22;4.82;;;25.30;88.00;;;;;;4870818;29;91625;-78
2021/07/04 12:41:07;;;;;;;3.67;3.38;;;25.10;88.10;;;;;;4869387;29;93140;-78
2021/07/04 12:43:55;;;;;;;3.85;3.45;;;25.20;86.70;;;;;;4869767;29;91212;-79
2021/07/04 12:46:24;;;;;;;3.22;3.03;;;24.90;88.30;;;;;;4869872;29;91859;-78
2021/07/04 12:48:55;;;;;;;3.78;3.47;;;24.70;88.70;;;;;;4876696;28;92167;-78
2021/07/04 12:54:43;;;;;;;4.15;3.78;;;24.60;91.00;;;;;;4872739;28;91836;-78
2021/07/04 12:57:08;;;;;;;5.65;5.25;;;24.20;92.10;;;;;;4867028;28;92067;-78
2021/07/04 12:59:36;;;;;;;5.03;4.07;;;23.90;92.10;;;;;;4870334;28;91812;-79
2021/07/04 13:02:03;;;;;;;4.18;3.78;;;23.80;93.20;;;;;;4866674;28;91958;-79
2021/07/04 13:04:29;;;;;;;5.50;5.10;;;23.30;93.30;;;;;;4866325;28;92113;-78
2021/07/04 13:06:56;;;;;;;4.53;4.05;;;23.60;93.40;;;;;;4867953;29;92261;-78
2021/07/04 13:09:28;;;;;;;3.90;3.60;;;23.60;94.70;;;;;;4869656;28;91137;-79
2021/07/04 13:11:59;;;;;;;4.03;3.72;;;23.60;94.50;;;;;;4866402;28;91782;-80
2021/07/04 13:14:33;;;;;;;6.38;5.78;;;23.50;95.80;;;;;;4867325;29;91988;-83
2021/07/04 13:17:00;;;;;;;4.15;3.83;;;23.50;96.20;;;;;;4871429;29;92768;-83
2021/07/04 13:19:28;;;;;;;5.95;5.45;;;23.30;97.40;;;;;;4871529;29;92000;-83
2021/07/04 13:21:55;;;;;;;4.40;4.00;;;23.30;97.60;;;;;;4872806;28;92219;-83
2021/07/04 13:24:23;;;;;;;4.63;4.05;;;23.20;98.00;;;;;;4876219;28;92427;-82
2021/07/04 13:26:55;;;;;;;3.83;3.50;;;23.10;98.30;;;;;;4869772;28;91773;-82
2021/07/04 13:29:25;;;;;;;5.85;5.40;;;23.00;98.90;;;;;;4866969;28;91950;-82
2021/07/04 13:32:07;;;;;;;5.68;5.28;;;23.30;99.20;;;;;;4872242;28;92123;-82
2021/07/04 13:34:33;;;;;;;6.07;5.50;;;22.70;99.60;;;;;;4877717;28;92852;-80
2021/07/04 13:36:59;;;;;;;4.70;4.30;;;22.80;99.80;;;;;;4877240;28;91869;-80
2021/07/04 13:39:25;;;;;;;5.03;4.15;;;22.80;99.90;;;;;;4879432;28;92114;-81
2021/07/04 13:41:50;;;;;;;6.50;5.90;;;22.60;99.90;;;;;;4882301;28;93638;-80
2021/07/04 13:44:16;;;;;;;4.60;4.10;;;22.80;99.90;;;;;;4878235;28;92167;-80
2021/07/04 13:46:43;;;;;;;6.07;5.57;;;22.90;99.90;;;;;;4874542;29;91662;-80
2021/07/04 13:49:09;;;;;;;6.50;5.90;;;;;;;;;;4873402;29;91919;-81
2021/07/04 13:51:35;;;;;;;6.88;6.22;;;23.00;99.90;;;;;;4873240;28;92721;-80
2021/07/04 13:54:01;;;;;;;6.35;5.82;;;22.40;99.90;;;;;;4867767;29;92069;-81
2021/07/04 13:56:27;;;;;;;5.97;5.38;;;23.00;99.90;;;;;;4872407;28;92155;-81
2021/07/04 13:58:52;;;;;;;7.10;5.35;;;23.00;99.90;;;;;;4867927;28;91397;-80
2021/07/04 14:01:18;;;;;;;15.88;13.85;;;23.10;99.90;;;;;;4870248;28;93512;-80
2021/07/04 14:03:44;;;;;;;56.13;50.25;;;;;;;;;;4877082;28;92052;-81
2021/07/04 14:06:10;;;;;;;19.90;18.00;;;23.00;99.90;;;;;;4869567;28;92962;-81
2021/07/04 14:08:36;;;;;;;15.73;14.10;;;22.80;99.90;;;;;;4867012;28;92730;-81
2021/07/04 14:11:03;;;;;;;8.27;7.55;;;22.80;99.90;;;;;;4868686;28;92246;-81
2021/07/04 14:13:28;;;;;;;5.70;5.30;;;23.00;99.90;;;;;;4870616;28;92119;-80
2021/07/04 14:15:54;;;;;;;10.32;9.20;;;22.70;99.90;;;;;;4871427;29;92013;-80
2021/07/04 14:18:20;;;;;;;7.63;6.93;;;22.60;99.90;;;;;;4868718;28;91573;-79
2021/07/04 14:20:46;;;;;;;5.63;5.20;;;22.50;99.90;;;;;;4872654;28;92262;-80
2021/07/04 14:23:12;;;;;;;5.32;4.88;;;;;;;;;;4871404;29;93950;-79
2021/07/04 14:25:38;;;;;;;5.45;4.97;;;22.10;99.90;;;;;;4870265;28;92108;-80
2021/07/04 14:28:05;;;;;;;4.97;3.75;;;22.30;99.90;;;;;;4871754;29;92009;-80
2021/07/04 14:30:32;;;;;;;5.85;5.38;;;22.20;99.90;;;;;;4870462;29;93297;-80
2021/07/04 14:32:58;;;;;;;6.07;5.57;;;22.20;99.90;;;;;;4876630;28;93032;-79
2021/07/04 14:35:25;;;;;;;5.53;4.50;;;22.10;99.90;;;;;;4875555;28;91842;-81
2021/07/04 14:37:52;;;;;;;5.13;4.72;;;21.80;99.90;;;;;;4875329;28;92301;-81
2021/07/04 14:40:20;;;;;;;5.00;4.60;;;21.70;99.90;;;;;;4872552;29;92084;-81
2021/07/04 14:42:48;;;;;;;5.78;4.65;;;21.70;99.90;;;;;;4877518;29;91591;-79
2021/07/04 14:45:14;;;;;;;5.40;5.00;;;21.60;99.90;;;;;;4876185;28;92069;-79
2021/07/04 14:47:40;;;;;;;3.60;3.28;;;21.70;99.90;;;;;;4877040;28;91510;-79
2021/07/04 14:50:06;;;;;;;4.63;4.22;;;21.80;99.90;;;;;;4873363;29;91835;-81
2021/07/04 14:52:33;;;;;;;3.65;2.72;;;21.50;99.90;;;;;;4880423;28;91830;-81
2021/07/04 14:55:00;;;;;;;2.72;2.50;;;21.60;99.90;;;;;;4872574;28;92909;-82
2021/07/04 14:57:27;;;;;;;2.47;2.13;;;21.70;99.90;;;;;;4872847;28;92041;-81
2021/07/04 14:59:53;;;;;;;3.55;3.35;;;21.60;98.90;;;;;;4872878;28;92694;-83
2021/07/04 15:02:21;;;;;;;4.30;4.00;;;21.70;98.40;;;;;;4869550;28;93244;-83
2021/07/04 15:04:47;;;;;;;3.95;3.65;;;21.60;99.10;;;;;;4872208;28;91885;-83
2021/07/04 15:07:15;;;;;;;3.60;3.40;;;21.50;99.30;;;;;;4874852;28;91679;-82
2021/07/04 15:09:40;;;;;;;4.80;4.40;;;21.20;99.90;;;;;;4878954;28;92572;-82
2021/07/04 15:12:07;;;;;;;4.00;3.70;;;21.20;99.90;;;;;;4870429;28;91377;-78
2021/07/04 15:14:33;;;;;;;4.10;3.80;;;21.00;99.90;;;;;;4871241;29;92002;-81
2021/07/04 15:16:59;;;;;;;2.92;2.00;;;21.00;99.90;;;;;;4871207;29;91962;-81
2021/07/04 15:19:24;;;;;;;3.78;3.55;;;21.00;99.90;;;;;;4869211;29;92854;-81
2021/07/04 15:21:50;;;;;;;3.65;3.35;;;21.10;99.90;;;;;;4867580;28;93950;-81
2021/07/04 15:24:16;;;;;;;3.75;3.45;;;21.10;99.90;;;;;;4869837;28;92116;-82
2021/07/04 15:26:42;;;;;;;4.10;3.55;;;21.10;99.90;;;;;;4873732;28;92431;-81
2021/07/04 15:29:08;;;;;;;3.67;3.38;;;21.00;99.90;;;;;;4869888;29;92495;-82
2021/07/04 15:31:34;;;;;;;4.22;3.88;;;21.10;99.90;;;;;;4880237;28;92071;-80
2021/07/04 15:34:01;;;;;;;3.33;3.13;;;20.90;99.90;;;;;;4871785;28;92094;-82
2021/07/04 15:39:49;;;;;;;3.80;3.50;;;;;;;;;;4865360;28;92256;-79
2021/07/04 15:42:15;;;;;;;3.35;3.15;;;20.30;99.90;;;;;;4868760;29;92078;-80
2021/07/04 15:44:41;;;;;;;3.20;2.30;;;20.40;99.90;;;;;;4866501;28;93161;-79
2021/07/04 15:47:07;;;;;;;2.70;2.50;;;20.30;99.90;;;;;;4867811;28;92135;-79
2021/07/04 15:49:32;;;;;;;3.13;2.30;;;20.40;99.90;;;;;;4873861;28;92170;-80
2021/07/04 15:51:58;;;;;;;4.07;3.78;;;;;;;;;;4868592;29;92152;-79
2021/07/04 15:54:24;;;;;;;4.25;3.95;;;20.30;99.90;;;;;;4869088;28;91621;-79
2021/07/04 15:56:50;;;;;;;3.80;3.60;;;20.00;99.90;;;;;;4869778;28;91652;-80
2021/07/04 15:59:16;;;;;;;3.15;2.00;;;20.10;99.90;;;;;;4869252;28;93071;-80
2021/07/04 16:01:42;;;;;;;3.60;3.20;;;;;;;;;;4864413;28;91118;-81
2021/07/04 16:04:07;;;;;;;3.70;2.90;;;19.80;99.90;;;;;;4860728;28;91736;-85
2021/07/04 16:06:34;;;;;;;3.38;3.10;;;19.80;99.90;;;;;;4862657;28;92198;-83
2021/07/04 16:09:00;;;;;;;4.00;3.55;;;20.10;99.90;;;;;;4864991;28;93426;-84
2021/07/04 16:11:27;;;;;;;3.53;2.58;;;19.80;99.90;;;;;;4855561;29;95004;-83
2021/07/04 16:13:55;;;;;;;5.60;2.65;;;19.90;99.90;;;;;;4869811;28;91929;-81
2021/07/04 16:16:21;;;;;;;5.93;3.75;;;20.00;99.90;;;;;;4870518;28;92081;-80
2021/07/04 16:18:47;;;;;;;4.63;3.75;;;;;;;;;;4869247;28;93440;-80
2021/07/04 16:21:12;;;;;;;6.32;3.90;;;20.30;99.90;;;;;;4867312;28;91940;-80
2021/07/04 16:23:39;;;;;;;6.97;2.78;;;20.10;99.90;;;;;;4869426;28;92892;-80
2021/07/04 16:26:05;;;;;;;7.63;4.15;;;20.20;99.90;;;;;;4868504;28;91424;-81
2021/07/04 16:28:32;;;;;;;3.13;2.70;;;20.30;99.90;;;;;;4868652;28;93232;-80
2021/07/04 16:30:58;;;;;;;5.85;4.30;;;20.30;99.90;;;;;;4870986;28;92040;-81
2021/07/04 16:33:24;;;;;;;4.55;4.15;;;19.80;99.90;;;;;;4868266;28;93024;-81
2021/07/04 16:35:50;;;;;;;4.50;4.05;;;20.30;99.90;;;;;;4872426;28;92160;-81
2021/07/04 16:38:15;;;;;;;4.00;3.70;;;20.10;99.90;;;;;;4870485;28;92268;-79
2021/07/04 16:40:41;;;;;;;3.58;3.30;;;19.90;99.90;;;;;;4851669;29;94020;-80
2021/07/04 16:43:07;;;;;;;4.20;3.60;;;;;;;;;;4870198;28;92042;-80
2021/07/04 16:45:33;;;;;;;3.30;1.90;;;19.50;99.90;;;;;;4869946;28;93029;-78
2021/07/04 16:48:00;;;;;;;3.30;3.10;;;18.60;99.90;;;;;;4872182;28;92868;-80
2021/07/04 16:50:28;;;;;;;3.13;2.92;;;18.40;99.90;;;;;;4865099;28;91534;-80
2021/07/04 16:52:55;;;;;;;3.58;3.28;;;18.10;99.90;;;;;;4867755;28;91961;-80
2021/07/04 16:55:21;;;;;;;3.20;3.00;;;17.80;99.90;;;;;;4870711;28;91910;-78
2021/07/04 16:57:48;;;;;;;3.67;2.53;;;18.00;99.90;;;;;;4867617;28;93037;-78
2021/07/04 17:00:18;;;;;;;3.35;3.13;;;17.80;99.90;;;;;;4867829;28;92216;-79
2021/07/04 17:02:44;;;;;;;3.30;3.00;;;17.60;99.90;;;;;;4868539;28;91927;-79
2021/07/04 17:05:10;;;;;;;2.97;2.75;;;17.80;99.90;;;;;;4861591;28;92855;-78
2021/07/04 17:07:36;;;;;;;2.85;2.65;;;17.50;99.90;;;;;;4877174;28;91597;-78
2021/07/04 17:10:03;;;;;;;2.75;2.65;;;17.50;99.90;;;;;;4865768;29;91924;-79
2021/07/04 17:12:30;;;;;;;1.77;1.60;;;17.50;99.90;;;;;;4860796;28;92165;-78
2021/07/04 17:14:56;;;;;;;2.78;2.65;;;17.40;99.90;;;;;;4865992;28;91464;-80
2021/07/04 17:17:21;;;;;;;2.92;2.72;;;17.10;99.90;;;;;;4869144;28;92117;-81
2021/07/04 17:19:48;;;;;;;2.55;2.30;;;17.30;99.90;;;;;;4868731;28;92113;-81
2021/07/04 17:22:14;;;;;;;3.47;2.90;;;17.10;99.90;;;;;;4865958;28;92915;-80
2021/07/04 17:24:40;;;;;;;1.52;1.42;;;17.10;99.90;;;;;;4865587;28;92109;-79
2021/07/04 17:27:06;;;;;;;2.75;2.65;;;16.80;99.90;;;;;;4869465;28;93408;-80
2021/07/04 17:29:31;;;;;;;1.58;1.30;;;17.00;99.90;;;;;;4866409;28;92056;-80
2021/07/04 17:31:57;;;;;;;3.30;3.00;;;16.80;99.90;;;;;;4868882;28;91679;-80
2021/07/04 17:37:34;;;;;;;3.05;2.85;;;16.70;99.90;;;;;;4869321;29;92765;-80
2021/07/04 17:40:00;;;;;;;2.78;2.58;;;;;;;;;;4870955;29;95906;-80
2021/07/04 17:42:26;;;;;;;2.42;2.33;;;17.00;99.90;;;;;;4873283;29;91593;-80